Time;durP1;ratioP1;P1;durP2;ratioP2;P2;SDS_P1;SDS_P2;PMS_P1;PMS_P2;Temp;Humidity;BMP_temperature;BMP_pressure;BME280_temperature;BME280_humidity;BME280_pressure;Samples;Min_cycle;Max_cycle;Signal;HPM_P1;HPM_P2
2020/12/01 00:01:04;;;;;;;17.98;10.50;;;;;;;-5.72;70.62;93969.59;5069403;28;20025;-61
2020/12/01 00:03:29;;;;;;;22.73;10.75;;;;;;;-5.69;70.36;93987.56;5069515;28;20056;-61
2020/12/01 00:05:54;;;;;;;14.13;8.82;;;;;;;-5.78;69.80;93988.22;5070927;28;20486;-61
2020/12/01 00:08:20;;;;;;;15.68;8.20;;;;;;;-5.83;70.41;93979.94;5069663;28;20090;-61
2020/12/01 00:10:45;;;;;;;18.65;9.40;;;;;;;-5.68;72.64;93986.38;5073802;28;20031;-61
2020/12/01 00:13:12;;;;;;;23.00;10.90;;;;;;;-5.55;73.45;93987.13;5069747;28;20050;-61
2020/12/01 00:15:37;;;;;;;19.17;10.75;;;;;;;-5.44;70.77;93987.53;5081616;28;20024;-61
2020/12/01 00:18:03;;;;;;;23.30;10.40;;;;;;;-5.47;69.72;93981.09;5089814;28;20117;-61
2020/12/01 00:20:28;;;;;;;23.65;10.73;;;;;;;-5.53;69.48;93987.44;5088925;28;20576;-61
2020/12/01 00:22:54;;;;;;;30.40;11.85;;;;;;;-5.60;69.26;93995.72;5089626;28;20024;-61
2020/12/01 00:25:20;;;;;;;24.00;11.15;;;;;;;-5.65;68.77;93985.53;5089176;28;20493;-62
2020/12/01 00:27:46;;;;;;;20.25;12.00;;;;;;;-5.80;69.65;93984.44;5085164;28;20028;-61
2020/12/01 00:30:23;;;;;;;20.00;9.48;;;;;;;-5.74;69.54;93969.28;5084233;28;20081;-62
2020/12/01 00:32:49;;;;;;;15.80;7.68;;;;;;;-6.08;70.65;93993.38;5089750;28;20024;-62
2020/12/01 00:35:20;;;;;;;17.60;9.43;;;;;;;-5.83;71.52;93990.69;5090035;28;20028;-62
2020/12/01 00:37:46;;;;;;;22.00;8.20;;;;;;;-6.18;71.18;93976.41;5074909;28;20020;-62
2020/12/01 00:40:13;;;;;;;9.93;5.75;;;;;;;-6.46;71.30;93978.00;5083132;28;20020;-62
2020/12/01 00:42:39;;;;;;;16.17;7.57;;;;;;;-6.14;70.82;93990.50;5088624;28;20096;-62
2020/12/01 00:45:06;;;;;;;20.98;8.40;;;;;;;-6.45;71.55;93989.47;5087242;28;20032;-62
2020/12/01 00:47:31;;;;;;;18.45;7.03;;;;;;;-6.38;72.05;93990.03;5069381;28;20094;-61
2020/12/01 00:49:57;;;;;;;21.30;9.65;;;;;;;-6.22;72.81;93991.88;5069477;28;20406;-61
2020/12/01 00:52:22;;;;;;;17.75;8.38;;;;;;;-6.16;71.00;93990.16;5077766;28;21467;-62
2020/12/01 00:54:48;;;;;;;21.70;8.73;;;;;;;-6.20;70.58;93984.16;5078317;28;20064;-61
2020/12/01 00:57:13;;;;;;;22.88;10.23;;;;;;;-6.02;70.96;93972.88;5073659;28;20024;-62
2020/12/01 00:59:39;;;;;;;19.98;10.57;;;;;;;-6.13;70.88;93967.06;5075559;28;20374;-63
2020/12/01 01:02:05;;;;;;;28.10;11.55;;;;;;;-6.29;70.39;93971.34;5078383;28;20093;-62
2020/12/01 01:04:31;;;;;;;29.88;13.63;;;;;;;-6.13;70.77;93956.31;5069059;28;20094;-62
2020/12/01 01:06:56;;;;;;;29.35;12.68;;;;;;;-6.58;70.46;93954.53;5069122;28;20037;-62
2020/12/01 01:09:22;;;;;;;19.33;10.10;;;;;;;-6.58;69.87;93959.91;5068713;28;20032;-62
2020/12/01 01:11:47;;;;;;;15.73;6.78;;;;;;;-6.73;69.32;93948.06;5087516;28;20619;-63
2020/12/01 01:14:13;;;;;;;17.77;7.03;;;;;;;-6.73;70.15;93964.16;5087792;28;20031;-62
2020/12/01 01:16:40;;;;;;;21.70;10.35;;;;;;;-6.71;71.26;93958.41;5069046;28;20603;-62
2020/12/01 01:19:06;;;;;;;21.30;10.02;;;;;;;-6.60;70.91;93964.97;5077034;28;20101;-61
2020/12/01 01:21:31;;;;;;;18.20;9.63;;;;;;;-6.43;71.01;93971.03;5089048;28;20031;-62
2020/12/01 01:23:57;;;;;;;19.20;8.15;;;;;;;-6.56;69.89;93973.66;5083673;28;20461;-62
2020/12/01 01:26:22;;;;;;;21.52;8.18;;;;;;;-6.98;71.46;93980.22;5069104;28;20386;-61
2020/12/01 01:28:48;;;;;;;20.55;8.93;;;;;;;-6.76;71.10;93969.66;5067475;28;20077;-61
2020/12/01 01:31:17;;;;;;;44.13;13.32;;;;;;;-6.64;71.13;93969.69;5068819;28;20025;-61
2020/12/01 01:33:43;;;;;;;22.02;11.02;;;;;;;-6.60;69.76;93964.97;5068428;28;20032;-61
2020/12/01 01:36:08;;;;;;;32.53;13.65;;;;;;;-6.47;70.66;93971.09;5068671;28;20515;-62
2020/12/01 01:38:33;;;;;;;35.00;14.27;;;;;;;-6.33;69.60;93967.25;5067726;28;20039;-62
2020/12/01 01:40:59;;;;;;;20.25;10.38;;;;;;;-6.23;69.35;93969.63;5068447;28;20028;-62
2020/12/01 01:43:24;;;;;;;24.15;11.43;;;;;;;-6.61;68.75;93952.72;5068301;28;20077;-62
2020/12/01 01:45:50;;;;;;;30.20;12.73;;;;;;;-6.53;70.22;93948.66;5068506;28;20028;-62
2020/12/01 01:48:25;;;;;;;30.58;14.00;;;;;;;-6.86;68.74;93965.34;5066695;28;20028;-62
2020/12/01 01:51:01;;;;;;;42.83;17.02;;;;;;;-6.74;69.67;93948.50;5068163;28;20032;-62
2020/12/01 01:53:29;;;;;;;38.08;16.50;;;;;;;-6.58;68.92;93954.53;5067245;28;20032;-62
2020/12/01 01:55:57;;;;;;;45.97;20.02;;;;;;;-6.43;68.14;93952.94;5067119;28;20398;-62
2020/12/01 01:58:27;;;;;;;33.30;13.82;;;;;;;-6.66;67.42;93947.13;5067394;28;20097;-62
2020/12/01 02:00:58;;;;;;;25.42;11.75;;;;;;;-6.97;67.62;93957.53;5080864;28;20046;-62
2020/12/01 02:03:39;;;;;;;43.47;16.42;;;;;;;-6.94;71.25;93959.41;5077591;28;20043;-62
2020/12/01 02:06:14;;;;;;;32.05;13.43;;;;;;;-7.44;70.02;93937.72;5068281;28;20403;-62
2020/12/01 02:08:41;;;;;;;25.33;12.20;;;;;;;-7.40;69.65;93941.81;5066643;28;20055;-62
2020/12/01 02:11:07;;;;;;;31.20;14.52;;;;;;;-7.08;70.66;93949.06;5084518;28;20036;-62
2020/12/01 02:13:40;;;;;;;18.23;10.27;;;;;;;-7.09;70.99;93947.53;5088203;28;20088;-62
2020/12/01 02:16:05;;;;;;;24.70;11.73;;;;;;;-7.54;68.50;93925.34;5087084;28;20138;-62
2020/12/01 02:18:34;;;;;;;33.45;14.35;;;;;;;-7.32;70.29;93943.13;5087792;28;20119;-61
2020/12/01 02:21:03;;;;;;;34.70;14.10;;;;;;;-7.28;69.18;93951.13;5088543;28;20031;-62
2020/12/01 02:23:28;;;;;;;;;;;;;;;-7.25;70.40;93947.56;5088726;28;20482;-63
2020/12/01 02:26:00;;;;;;;24.60;11.93;;;;;;;-7.33;69.70;93949.69;5086766;28;20026;-62
2020/12/01 02:28:25;;;;;;;24.83;12.52;;;;;;;-7.43;72.13;93948.06;5079884;28;20024;-62
2020/12/01 02:30:51;;;;;;;17.50;8.85;;;;;;;-7.29;70.42;93947.66;5066476;28;20082;-62
2020/12/01 02:33:16;;;;;;;26.85;10.50;;;;;;;-7.20;69.66;93942.44;5067301;28;20033;-62
2020/12/01 02:35:42;;;;;;;24.55;10.15;;;;;;;-7.37;70.22;93951.72;5067691;28;20035;-62
2020/12/01 02:38:07;;;;;;;19.60;9.23;;;;;;;-7.36;69.98;93945.16;5079736;28;20123;-62
2020/12/01 02:40:32;;;;;;;21.00;9.07;;;;;;;-7.08;69.64;93941.00;5086702;28;20048;-62
2020/12/01 02:42:59;;;;;;;23.63;9.88;;;;;;;-7.06;70.50;93952.78;5087779;28;20048;-62
2020/12/01 02:45:24;;;;;;;23.75;10.07;;;;;;;-6.88;69.59;93955.00;5073723;28;20067;-62
2020/12/01 02:47:49;;;;;;;18.38;8.48;;;;;;;-7.33;68.74;93954.31;5075667;28;20048;-62
2020/12/01 02:50:15;;;;;;;18.80;9.40;;;;;;;-7.29;68.79;93955.72;5067874;28;20024;-62
2020/12/01 02:52:41;;;;;;;23.63;9.27;;;;;;;-7.27;69.35;93955.28;5067735;28;20085;-62
2020/12/01 02:55:07;;;;;;;19.05;6.93;;;;;;;-7.43;68.93;93956.09;5066456;28;20038;-62
2020/12/01 02:57:32;;;;;;;11.85;6.50;;;;;;;-7.23;69.45;93954.03;5067697;28;20103;-62
2020/12/01 02:59:58;;;;;;;20.75;8.48;;;;;;;-7.11;68.78;93945.28;5067740;28;20028;-61
2020/12/01 03:02:23;;;;;;;21.80;9.20;;;;;;;-7.23;69.64;93943.28;5069734;28;20471;-62
2020/12/01 03:04:49;;;;;;;27.85;10.73;;;;;;;-7.07;69.86;93948.63;5071019;28;20047;-61
2020/12/01 03:07:14;;;;;;;27.48;10.55;;;;;;;-7.04;68.89;93952.38;5070729;28;20059;-62
2020/12/01 03:09:40;;;;;;;20.52;9.45;;;;;;;-7.15;67.90;93944.63;5072844;28;20032;-62
2020/12/01 03:12:05;;;;;;;22.85;11.07;;;;;;;-7.61;68.15;93938.94;5072610;28;20024;-61
2020/12/01 03:14:31;;;;;;;23.10;9.23;;;;;;;-7.56;67.88;93936.50;5071097;28;20024;-61
2020/12/01 03:16:56;;;;;;;20.40;8.00;;;;;;;-7.85;69.02;93939.13;5070955;28;20382;-61
2020/12/01 03:19:21;;;;;;;17.20;7.55;;;;;;;-7.60;69.34;93945.81;5070687;28;20048;-61
2020/12/01 03:21:48;;;;;;;14.32;7.15;;;;;;;-7.38;68.43;93944.84;5070693;28;20193;-61
2020/12/01 03:24:13;;;;;;;19.48;7.78;;;;;;;-7.32;68.72;93948.50;5071025;28;20024;-61
2020/12/01 03:26:39;;;;;;;20.00;10.23;;;;;;;-7.37;67.22;93949.03;5070642;28;20047;-61
2020/12/01 03:29:05;;;;;;;19.23;8.90;;;;;;;-7.43;67.28;93944.59;5070590;28;20512;-61
2020/12/01 03:31:30;;;;;;;18.90;8.57;;;;;;;-7.39;66.83;93935.28;5069591;28;20028;-61
2020/12/01 03:33:56;;;;;;;17.55;8.48;;;;;;;-7.23;66.31;93950.56;5074381;28;20028;-61
2020/12/01 03:36:21;;;;;;;15.45;8.40;;;;;;;-7.74;66.90;93953.03;5070332;28;20036;-61
2020/12/01 03:38:47;;;;;;;13.63;6.10;;;;;;;-7.95;66.98;93944.75;5071355;28;20086;-61
2020/12/01 03:41:13;;;;;;;14.13;6.78;;;;;;;-7.76;66.01;93944.66;5073033;28;20028;-61
2020/12/01 03:43:39;;;;;;;11.38;7.00;;;;;;;-7.94;67.48;93922.13;5072135;28;20028;-61
2020/12/01 03:46:05;;;;;;;18.55;6.68;;;;;;;-7.89;68.36;93954.53;5070053;28;20043;-61
2020/12/01 03:48:30;;;;;;;16.52;7.47;;;;;;;-7.81;66.94;93947.81;5070653;28;20032;-61
2020/12/01 03:50:56;;;;;;;16.65;7.72;;;;;;;-7.74;65.99;93950.34;5071332;28;20036;-61
2020/12/01 03:53:21;;;;;;;20.27;8.88;;;;;;;-7.90;67.10;93955.69;5070172;28;20032;-61
2020/12/01 03:55:47;;;;;;;22.10;9.20;;;;;;;-8.01;67.58;93954.47;5070040;28;20038;-61
2020/12/01 03:58:12;;;;;;;22.40;9.57;;;;;;;-8.08;67.88;93958.06;5070537;28;20062;-61
2020/12/01 04:00:37;;;;;;;17.75;9.32;;;;;;;-7.93;68.30;93955.78;5069982;28;20463;-61
2020/12/01 04:03:03;;;;;;;17.25;7.57;;;;;;;-7.95;68.50;93952.78;5068829;28;20479;-61
2020/12/01 04:05:28;;;;;;;19.25;8.82;;;;;;;-8.32;67.76;93951.34;5068706;28;20101;-62
2020/12/01 04:07:56;;;;;;;16.23;8.40;;;;;;;-8.07;68.98;93948.81;5069672;28;20020;-61
2020/12/01 04:10:24;;;;;;;23.23;10.93;;;;;;;-8.02;69.45;93936.88;5069530;28;20535;-61
2020/12/01 04:12:50;;;;;;;20.98;9.65;;;;;;;-8.22;67.20;93955.69;5069306;28;20525;-61
2020/12/01 04:15:16;;;;;;;16.52;6.90;;;;;;;-8.47;68.53;93950.16;5070071;28;20028;-62
2020/12/01 04:17:42;;;;;;;13.30;7.15;;;;;;;-8.27;67.25;93948.16;5069920;28;20061;-63
2020/12/01 04:20:07;;;;;;;14.13;6.50;;;;;;;-8.48;68.82;93948.63;5075786;28;20043;-63
2020/12/01 04:22:33;;;;;;;22.67;11.20;;;;;;;-8.35;69.47;93949.50;5090275;28;20031;-63
2020/12/01 04:25:00;;;;;;;20.90;10.07;;;;;;;-8.20;68.21;93947.97;5090202;28;20444;-63
2020/12/01 04:27:25;;;;;;;22.23;9.35;;;;;;;-8.18;68.43;93952.91;5090661;28;20032;-62
2020/12/01 04:29:50;;;;;;;18.65;9.23;;;;;;;-8.42;68.22;93955.00;5072452;28;20039;-63
2020/12/01 04:32:16;;;;;;;21.20;10.38;;;;;;;-8.41;68.45;93953.84;5070032;28;20525;-63
2020/12/01 04:34:41;;;;;;;19.95;9.93;;;;;;;-8.30;67.80;93961.63;5074049;28;20028;-61
2020/12/01 04:37:07;;;;;;;43.33;16.17;;;;;;;-8.27;67.72;93950.09;5088865;28;20032;-61
2020/12/01 04:39:33;;;;;;;39.70;20.45;;;;;;;-8.27;68.02;93955.47;5089707;28;20024;-62
2020/12/01 04:41:59;;;;;;;61.75;22.60;;;;;;;-8.16;68.53;93958.59;5088263;28;20024;-61
2020/12/01 04:44:28;;;;;;;26.00;10.40;;;;;;;-8.34;66.30;93969.00;5088689;28;20390;-61
2020/12/01 04:46:54;;;;;;;31.73;13.77;;;;;;;-8.61;65.90;93963.81;5088323;28;20066;-61
2020/12/01 04:49:32;;;;;;;21.13;11.65;;;;;;;-8.46;65.41;93973.06;5074571;28;20031;-61
2020/12/01 04:52:00;;;;;;;31.55;13.95;;;;;;;-8.23;65.45;93974.84;5070886;28;20090;-61
2020/12/01 04:54:50;;;;;;;27.90;10.65;;;;;;;-8.42;65.09;93973.75;5067733;28;20098;-62
2020/12/01 04:57:37;;;;;;;27.25;10.95;;;;;;;-8.56;66.13;93966.03;5069337;28;20032;-62
2020/12/01 05:00:09;;;;;;;28.15;13.15;;;;;;;-8.73;67.38;93972.50;5068621;28;20028;-62
2020/12/01 05:03:16;;;;;;;34.03;13.52;;;;;;;-8.54;67.79;93967.13;5067597;28;20421;-62
2020/12/01 05:06:16;;;;;;;39.03;17.77;;;;;;;-8.75;68.20;93972.16;5023883;28;20144;-62
2020/12/01 05:08:47;;;;;;;29.83;12.48;;;;;;;-8.84;68.99;93953.97;5072582;28;20445;-62
2020/12/01 05:11:53;;;;;;;41.63;16.20;;;;;;;-8.66;67.05;93961.63;5086505;28;20036;-62
2020/12/01 05:14:45;;;;;;;37.17;17.52;;;;;;;-8.64;65.68;93968.06;5064792;28;20036;-61
2020/12/01 05:17:34;;;;;;;45.22;23.45;;;;;;;-8.66;66.98;93953.59;5077378;28;20147;-62
2020/12/01 05:20:00;;;;;;;53.13;20.50;;;;;;;-8.61;64.98;93951.19;5086100;28;20032;-62
2020/12/01 05:22:25;;;;;;;66.55;28.33;;;;;;;-8.78;65.19;93954.25;5089024;28;20097;-62
2020/12/01 05:24:52;;;;;;;71.93;29.77;;;;;;;-8.61;67.25;93955.78;5076316;28;20021;-62
2020/12/01 05:27:34;;;;;;;80.97;32.80;;;;;;;-8.81;64.96;93955.81;5068979;28;20020;-62
2020/12/01 05:30:06;;;;;;;110.50;42.58;;;;;;;-8.94;64.88;93957.59;5066779;28;20769;-62
2020/12/01 05:32:58;;;;;;;65.80;31.48;;;;;;;-8.87;63.87;93949.44;5069488;28;20025;-62
2020/12/01 05:35:34;;;;;;;49.33;20.63;;;;;;;-9.23;64.53;93959.34;5077011;28;20562;-61
2020/12/01 05:38:15;;;;;;;58.75;19.75;;;;;;;-9.21;64.70;93954.31;5065022;28;20028;-61
2020/12/01 05:40:57;;;;;;;43.03;21.08;;;;;;;-9.15;65.61;93952.69;5068936;28;20119;-61
2020/12/01 05:43:37;;;;;;;64.50;28.33;;;;;;;-9.21;65.59;93966.94;5067611;28;20024;-61
2020/12/01 05:46:32;;;;;;;43.55;21.23;;;;;;;-9.06;64.84;93965.50;5066571;28;20502;-60
2020/12/01 05:49:19;;;;;;;51.15;21.90;;;;;;;-9.07;65.42;93969.34;5063061;28;20039;-61
2020/12/01 05:51:47;;;;;;;48.58;24.33;;;;;;;-8.90;64.99;93966.31;5065697;28;20032;-61
2020/12/01 05:54:21;;;;;;;45.92;22.17;;;;;;;-8.96;63.80;93961.84;5064221;28;20425;-61
2020/12/01 05:56:50;;;;;;;48.67;22.52;;;;;;;-9.14;63.91;93956.13;5063389;28;20143;-62
2020/12/01 05:59:17;;;;;;;61.58;27.40;;;;;;;-9.17;65.92;93944.31;5065602;28;20059;-62
2020/12/01 06:01:45;;;;;;;79.05;31.63;;;;;;;-8.98;65.97;93970.31;5065128;28;20424;-62
2020/12/01 06:04:15;;;;;;;68.63;30.45;;;;;;;-8.91;64.28;93959.47;5064784;28;20137;-62
2020/12/01 06:06:50;;;;;;;42.63;20.45;;;;;;;-9.07;62.89;93966.69;5062191;28;20032;-61
2020/12/01 06:09:34;;;;;;;81.72;36.17;;;;;;;-9.01;63.10;93955.09;5063657;28;20020;-62
2020/12/01 06:12:32;;;;;;;72.43;27.67;;;;;;;-9.09;62.62;93952.94;5064888;28;20024;-61
2020/12/01 06:15:00;;;;;;;78.15;32.35;;;;;;;-9.40;62.40;93957.75;5050096;28;20404;-63
2020/12/01 06:17:47;;;;;;;44.60;24.00;;;;;;;-9.04;62.21;93961.25;5064028;28;20106;-64
2020/12/01 06:20:43;;;;;;;46.53;22.33;;;;;;;-9.17;64.67;93963.03;5059667;28;20650;-63
2020/12/01 06:23:48;;;;;;;61.50;25.45;;;;;;;-9.04;64.51;93977.31;5066251;28;20024;-63
2020/12/01 06:26:13;;;;;;;113.03;33.22;;;;;;;-9.13;61.96;93962.97;5062184;28;20072;-63
2020/12/01 06:29:17;;;;;;;100.13;33.92;;;;;;;-8.88;62.27;93960.56;5081706;28;20479;-63
2020/12/01 06:31:48;;;;;;;52.58;25.40;;;;;;;-8.89;62.31;93965.16;5065317;28;20040;-63
2020/12/01 06:34:35;;;;;;;74.90;28.58;;;;;;;-8.94;62.32;93957.59;5065184;28;20021;-62
2020/12/01 06:37:22;;;;;;;64.75;27.52;;;;;;;-8.84;62.20;93969.28;5071430;28;20032;-62
2020/12/01 06:40:04;;;;;;;66.93;28.10;;;;;;;-8.75;62.78;93964.13;5074197;28;20115;-62
2020/12/01 06:42:52;;;;;;;90.43;36.53;;;;;;;-8.84;63.86;93970.03;5088286;28;20028;-62
2020/12/01 06:45:24;;;;;;;;;;;;;;;-8.80;64.47;93969.97;5089906;28;20099;-62
2020/12/01 06:47:51;;;;;;;86.55;42.08;;;;;;;-8.64;64.80;93972.69;5089361;28;19912;-63
2020/12/01 06:50:19;;;;;;;85.22;41.38;;;;;;;-8.49;64.92;93968.56;5071445;28;20028;-62
2020/12/01 06:53:04;;;;;;;89.20;45.35;;;;;;;-8.32;64.54;93972.78;5073840;28;20032;-63
2020/12/01 06:55:55;;;;;;;86.30;42.80;;;;;;;-8.18;64.78;93966.31;5069576;28;20434;-63
2020/12/01 06:58:26;;;;;;;76.75;36.67;;;;;;;-8.08;64.58;93966.09;5069362;28;20052;-63
2020/12/01 07:01:23;;;;;;;83.93;41.17;;;;;;;-7.96;64.59;93956.63;5070038;28;20521;-63
2020/12/01 07:04:09;;;;;;;82.35;37.45;;;;;;;-7.76;63.96;93958.06;5070007;28;20021;-63
2020/12/01 07:06:37;;;;;;;64.72;33.63;;;;;;;-7.48;63.41;93958.50;5070584;28;20046;-63
2020/12/01 07:09:17;;;;;;;81.15;37.08;;;;;;;-7.18;63.94;93953.50;5069006;28;20036;-64
2020/12/01 07:11:57;;;;;;;71.15;32.15;;;;;;;-6.52;62.69;93949.41;5068440;28;20028;-63
2020/12/01 07:14:31;;;;;;;49.13;22.85;;;;;;;-5.80;60.82;93944.09;5070283;28;20031;-64
2020/12/01 07:16:57;;;;;;;53.80;27.33;;;;;;;-5.28;58.87;93940.91;5087594;28;20577;-63
2020/12/01 07:19:36;;;;;;;53.17;26.33;;;;;;;-5.11;59.45;93945.66;5069644;28;20123;-64
2020/12/01 07:22:10;;;;;;;44.47;18.65;;;;;;;-4.83;59.25;93936.59;5077274;28;20153;-63
2020/12/01 07:24:46;;;;;;;42.20;23.80;;;;;;;-4.65;59.70;93944.06;5088356;28;20383;-64
2020/12/01 07:27:21;;;;;;;69.97;35.97;;;;;;;-4.24;59.51;93937.56;5071579;28;20482;-63
2020/12/01 07:30:16;;;;;;;91.35;44.72;;;;;;;-3.84;57.08;93930.25;5069762;28;20063;-64
2020/12/01 07:33:02;;;;;;;83.30;38.55;;;;;;;-3.95;56.70;93933.34;5069833;28;20032;-65
2020/12/01 07:35:37;;;;;;;61.58;29.95;;;;;;;-3.50;57.52;93929.28;5070034;28;20078;-64
2020/12/01 07:38:05;;;;;;;65.15;31.42;;;;;;;-2.78;55.75;93933.97;5067783;28;20033;-64
2020/12/01 07:40:40;;;;;;;56.15;27.73;;;;;;;-2.23;54.61;93929.25;5082647;28;20026;-65
2020/12/01 07:43:05;;;;;;;54.40;28.10;;;;;;;-1.76;52.94;93935.56;5068298;28;20110;-64
2020/12/01 07:45:31;;;;;;;49.08;27.48;;;;;;;-1.02;51.82;93931.94;5069838;28;20114;-64
2020/12/01 07:47:59;;;;;;;52.35;25.52;;;;;;;0.04;50.40;93918.34;5068634;28;20433;-65
2020/12/01 07:50:26;;;;;;;52.38;28.63;;;;;;;1.35;47.39;93925.31;5071119;28;20383;-64
2020/12/01 07:52:58;;;;;;;63.80;32.03;;;;;;;2.69;44.06;93933.44;5090306;28;20028;-64
2020/12/01 07:55:33;;;;;;;50.35;26.25;;;;;;;3.34;41.62;93932.28;5088482;28;20064;-64
2020/12/01 07:58:18;;;;;;;44.05;24.00;;;;;;;4.20;39.82;93926.03;5089918;28;20106;-64
2020/12/01 08:01:13;;;;;;;51.17;25.77;;;;;;;4.83;38.53;93922.78;5084122;28;20532;-64
2020/12/01 08:03:40;;;;;;;46.53;26.83;;;;;;;5.25;37.66;93925.91;5068861;28;20121;-64
2020/12/01 08:06:07;;;;;;;49.88;29.10;;;;;;;5.97;37.08;93922.88;5074399;28;20143;-64
2020/12/01 08:08:37;;;;;;;53.95;32.17;;;;;;;6.42;35.72;93925.31;5078772;28;20082;-64
2020/12/01 08:11:05;;;;;;;49.22;31.23;;;;;;;7.35;33.91;93925.69;5077232;28;20024;-64
2020/12/01 08:13:32;;;;;;;47.53;29.38;;;;;;;7.82;33.71;93920.66;5082110;28;20036;-64
2020/12/01 08:16:18;;;;;;;46.22;29.75;;;;;;;8.22;32.79;93919.59;5070296;28;20028;-64
2020/12/01 08:18:44;;;;;;;37.65;23.85;;;;;;;8.58;32.30;93912.56;5067057;28;20051;-64
2020/12/01 08:21:10;;;;;;;41.38;25.45;;;;;;;9.46;30.71;93915.03;5067847;28;20028;-64
2020/12/01 08:23:36;;;;;;;39.63;24.42;;;;;;;10.00;30.37;93908.94;5068819;28;20028;-65
2020/12/01 08:26:12;;;;;;;41.28;26.05;;;;;;;10.25;29.96;93912.91;5067841;28;20047;-64
2020/12/01 08:28:44;;;;;;;32.92;21.23;;;;;;;10.94;28.94;93912.31;5075308;28;20091;-65
2020/12/01 08:31:50;;;;;;;55.70;33.65;;;;;;;11.34;28.37;93908.75;5076644;28;20064;-64
2020/12/01 08:34:41;;;;;;;37.60;22.83;;;;;;;11.99;28.15;93910.25;5066958;28;20085;-65
2020/12/01 08:37:21;;;;;;;37.53;24.25;;;;;;;12.28;26.80;93904.66;5066923;28;22168;-65
2020/12/01 08:40:05;;;;;;;40.20;24.50;;;;;;;13.00;26.55;93905.88;5067412;28;20081;-64
2020/12/01 08:43:04;;;;;;;39.50;24.35;;;;;;;13.05;25.98;93898.72;5066843;28;20032;-65
2020/12/01 08:45:41;;;;;;;40.40;25.77;;;;;;;13.19;25.68;93895.19;5071303;28;20035;-65
2020/12/01 08:48:16;;;;;;;32.42;21.73;;;;;;;13.76;25.52;93883.66;5069596;28;20749;-65
2020/12/01 08:50:42;;;;;;;24.83;16.98;;;;;;;14.17;24.36;93886.66;5064916;28;20029;-65
2020/12/01 08:53:19;;;;;;;19.73;13.68;;;;;;;14.30;24.54;93877.34;5066802;28;20363;-65
2020/12/01 08:55:49;;;;;;;23.40;14.43;;;;;;;14.97;24.58;93887.34;5067312;28;20083;-65
2020/12/01 08:58:27;;;;;;;27.60;16.70;;;;;;;15.47;23.05;93879.72;5065584;28;20364;-64
2020/12/01 09:01:05;;;;;;;22.15;13.38;;;;;;;15.34;22.68;93882.03;5068247;28;20032;-66
2020/12/01 09:03:32;;;;;;;19.10;11.63;;;;;;;15.52;23.88;93862.06;5065887;28;20033;-65
2020/12/01 09:05:58;;;;;;;22.38;13.30;;;;;;;15.55;22.50;93880.38;5064654;28;20083;-64
2020/12/01 09:19:49;;;;;;;15.80;9.43;;;;;;;16.54;23.59;93863.31;5064260;28;20044;-66
2020/12/01 09:22:13;;;;;;;26.15;15.77;;;;;;;17.02;21.73;93850.31;5065067;28;20028;-66
2020/12/01 09:24:40;;;;;;;17.15;11.50;;;;;;;16.49;22.29;93847.56;5075559;28;20055;-66
2020/12/01 09:27:11;;;;;;;20.08;12.25;;;;;;;16.92;22.80;93841.19;5071447;28;20024;-66
2020/12/01 09:29:37;;;;;;;11.90;7.65;;;;;;;17.48;22.74;93841.94;5064295;28;20017;-65
2020/12/01 09:32:06;;;;;;;14.45;9.23;;;;;;;18.03;22.42;93836.28;5065447;28;20023;-64
2020/12/01 09:34:33;;;;;;;24.48;13.63;;;;;;;18.37;20.10;93832.44;5064621;28;20032;-64
2020/12/01 09:37:03;;;;;;;23.02;14.60;;;;;;;18.35;20.71;93834.34;5064084;28;20027;-65
2020/12/01 09:39:30;;;;;;;20.10;13.82;;;;;;;18.15;21.34;93823.19;5064086;28;20081;-64
2020/12/01 09:42:34;;;;;;;14.43;11.13;;;;;;;17.65;22.18;93827.88;5064300;28;20033;-65
2020/12/01 09:45:11;;;;;;;9.77;7.22;;;;;;;18.42;21.36;93825.06;5064820;28;20518;-65
2020/12/01 09:50:07;;;;;;;12.02;8.10;;;;;;;20.12;19.67;93815.72;5064370;28;20130;-65
2020/12/01 09:52:45;;;;;;;13.38;8.65;;;;;;;19.92;19.24;93817.19;5063648;28;20024;-64
2020/12/01 10:03:51;;;;;;;9.30;6.10;;;;;;;20.88;19.00;93791.75;5067731;28;20055;-64
2020/12/01 10:07:30;;;;;;;9.75;6.07;;;;;;;20.31;16.72;93793.13;5062471;28;20033;-64
2020/12/01 10:11:23;;;;;;;6.55;4.25;;;;;;;18.27;17.95;93792.59;5061949;28;20532;-64
2020/12/01 10:14:02;;;;;;;4.90;2.75;;;;;;;18.45;17.28;93805.06;5062732;28;20056;-65
2020/12/01 10:35:48;;;;;;;4.85;3.80;;;;;;;15.43;20.87;93781.22;5063239;28;20044;-65
2020/12/01 10:38:14;;;;;;;4.18;2.97;;;;;;;14.00;22.30;93763.63;5061860;28;20413;-64
2020/12/01 10:40:40;;;;;;;3.75;3.03;;;;;;;13.46;23.32;93768.69;5066629;28;20055;-65
2020/12/01 10:43:06;;;;;;;5.65;3.17;;;;;;;11.91;25.62;93784.97;5068587;28;20028;-66
2020/12/01 10:45:31;;;;;;;3.38;3.00;;;;;;;11.32;25.96;93791.72;5061584;28;20028;-66
2020/12/01 10:47:57;;;;;;;3.25;2.63;;;;;;;12.08;25.70;93768.56;5072392;28;20053;-65
2020/12/01 10:50:26;;;;;;;3.80;3.00;;;;;;;11.00;26.78;93777.53;5068294;28;20083;-64
2020/12/01 10:52:51;;;;;;;18.88;8.80;;;;;;;10.24;27.00;93790.03;5064375;28;20036;-65
2020/12/01 10:55:22;;;;;;;14.25;8.27;;;;;;;10.07;28.60;93779.34;5062426;28;20039;-65
2020/12/01 10:57:51;;;;;;;5.20;3.47;;;;;;;9.77;28.26;93779.78;5065344;28;20039;-65
2020/12/01 11:00:17;;;;;;;;;;;;;;;10.13;28.28;93787.53;5064593;28;20025;-66
2020/12/01 11:02:42;;;;;;;5.88;4.15;;;;;;;9.66;28.15;93784.81;5063731;28;19966;-64
2020/12/01 11:05:11;;;;;;;9.25;4.70;;;;;;;9.40;29.91;93776.63;5077827;28;20811;-64
2020/12/01 11:07:37;;;;;;;;;;;;;;;9.87;28.79;93785.59;5061042;28;20498;-64
2020/12/01 11:10:03;;;;;;;3.35;2.10;;;;;;;9.93;28.41;93772.41;5060800;28;19962;-63
2020/12/01 11:12:28;;;;;;;5.57;3.17;;;;;;;10.08;28.73;93767.06;5070500;28;20043;-64
2020/12/01 11:14:54;;;;;;;4.10;2.80;;;;;;;9.94;27.29;93765.63;5063197;28;20427;-64
2020/12/01 11:17:19;;;;;;;4.72;3.35;;;;;;;8.83;29.35;93765.25;5062203;28;21302;-64
2020/12/01 11:19:45;;;;;;;8.57;4.93;;;;;;;8.69;29.75;93752.72;5079158;28;20515;-64
2020/12/01 11:22:13;;;;;;;3.92;3.00;;;;;;;8.39;29.86;93757.78;5065029;28;20036;-65
2020/12/01 11:24:39;;;;;;;4.93;3.05;;;;;;;7.97;32.27;93750.50;5072698;28;20126;-65
2020/12/01 11:27:04;;;;;;;6.40;4.07;;;;;;;8.54;31.46;93747.00;5066433;28;20020;-65
2020/12/01 11:29:30;;;;;;;3.88;2.78;;;;;;;8.59;30.62;93743.44;5067163;28;20040;-65
2020/12/01 11:31:55;;;;;;;4.20;2.65;;;;;;;8.46;30.44;93743.41;5078358;28;20501;-65
2020/12/01 11:34:20;;;;;;;4.40;2.60;;;;;;;8.38;31.63;93734.31;5066925;28;20904;-66
2020/12/01 11:36:46;;;;;;;5.50;3.40;;;;;;;8.09;31.84;93738.03;5066199;28;20052;-65
2020/12/01 11:39:13;;;;;;;5.38;3.67;;;;;;;7.09;33.68;93736.03;5066399;28;20175;-65
2020/12/01 11:41:39;;;;;;;7.82;3.15;;;;;;;6.42;34.15;93742.31;5066253;28;20024;-65
2020/12/01 11:44:05;;;;;;;6.55;3.45;;;;;;;6.65;35.09;93735.31;5064321;28;20039;-65
2020/12/01 11:46:31;;;;;;;5.30;3.67;;;;;;;7.48;32.74;93730.75;5066229;28;20028;-65
2020/12/01 11:49:01;;;;;;;4.28;2.90;;;;;;;6.38;34.05;93730.88;5067296;28;20016;-65
2020/12/01 11:51:28;;;;;;;6.38;3.05;;;;;;;6.61;34.06;93721.16;5065109;28;20085;-65
2020/12/01 11:53:53;;;;;;;3.60;2.85;;;;;;;6.95;34.34;93713.28;5066785;28;20036;-65
2020/12/01 11:56:18;;;;;;;8.82;3.47;;;;;;;7.41;33.75;93707.38;5065011;28;20024;-65
2020/12/01 11:58:44;;;;;;;3.35;2.83;;;;;;;7.44;33.34;93706.34;5065788;28;20032;-65
2020/12/01 12:01:10;;;;;;;5.40;3.20;;;;;;;7.45;32.86;93693.34;5066322;28;20028;-65
2020/12/01 12:03:35;;;;;;;4.93;2.97;;;;;;;8.04;32.75;93698.34;5084400;28;20028;-65
2020/12/01 12:06:01;;;;;;;11.10;4.57;;;;;;;8.13;31.37;93694.47;5084946;28;20028;-64
2020/12/01 12:08:26;;;;;;;10.90;6.72;;;;;;;8.03;34.30;93693.41;5075755;28;20051;-64
2020/12/01 12:10:52;;;;;;;12.32;6.10;;;;;;;8.02;32.31;93700.91;5065091;28;20051;-64
2020/12/01 12:13:18;;;;;;;6.93;4.20;;;;;;;8.24;32.75;93691.50;5076522;28;20028;-64
2020/12/01 12:15:43;;;;;;;4.97;3.25;;;;;;;8.70;32.64;93698.44;5084800;28;20032;-64
2020/12/01 12:18:08;;;;;;;6.65;3.55;;;;;;;9.07;31.08;93693.38;5077117;28;20067;-64
2020/12/01 12:20:34;;;;;;;4.68;2.88;;;;;;;8.81;31.79;93693.44;5066356;28;20489;-65
2020/12/01 12:22:59;;;;;;;5.60;3.13;;;;;;;8.72;31.73;93691.13;5065297;28;20029;-64
2020/12/01 12:25:25;;;;;;;4.13;2.80;;;;;;;8.82;32.95;93683.91;5064618;28;20040;-65